Time;durP1;ratioP1;P1;durP2;ratioP2;P2;SDS_P1;SDS_P2;PMS_P1;PMS_P2;Temp;Humidity;BMP_temperature;BMP_pressure;BME280_temperature;BME280_humidity;BME280_pressure;Samples;Min_cycle;Max_cycle;Signal;HPM_P1;HPM_P2
2023/03/27 00:02:08;;;;;;;13.03;2.30;;;3.30;99.90;;;;;;4673004;28;10000415;-70
2023/03/27 00:04:42;;;;;;;10.48;1.77;;;3.40;99.90;;;;;;5027387;28;20037;-70
2023/03/27 00:07:11;;;;;;;13.15;1.98;;;3.40;99.90;;;;;;5023657;28;20038;-70
2023/03/27 00:09:38;;;;;;;14.10;1.83;;;3.40;99.90;;;;;;5028014;28;20109;-70
2023/03/27 00:12:04;;;;;;;13.00;1.77;;;3.40;99.90;;;;;;5025645;28;20041;-70
2023/03/27 00:14:36;;;;;;;12.52;2.42;;;3.40;99.90;;;;;;5028097;28;20113;-70
2023/03/27 00:17:06;;;;;;;14.57;1.80;;;3.40;99.90;;;;;;5023796;28;20022;-71
2023/03/27 00:19:43;;;;;;;13.35;1.85;;;3.30;99.90;;;;;;5020082;28;20432;-70
2023/03/27 00:22:21;;;;;;;10.18;1.92;;;3.40;99.90;;;;;;5018669;28;20143;-70
2023/03/27 00:25:01;;;;;;;11.32;2.10;;;3.40;99.90;;;;;;5024045;28;20037;-71
2023/03/27 00:27:36;;;;;;;14.10;2.00;;;3.30;99.90;;;;;;5022670;28;20065;-71
2023/03/27 00:30:11;;;;;;;14.18;2.00;;;3.30;99.90;;;;;;5019111;28;20033;-70
2023/03/27 00:32:42;;;;;;;11.57;1.60;;;3.30;99.90;;;;;;5024792;28;20034;-71
2023/03/27 00:35:15;;;;;;;14.70;1.98;;;3.30;99.90;;;;;;5024172;28;20112;-70
2023/03/27 00:37:47;;;;;;;16.05;2.42;;;3.30;99.90;;;;;;5021460;28;20061;-71
2023/03/27 00:40:24;;;;;;;9.93;1.90;;;3.30;99.90;;;;;;5023033;28;20037;-70
2023/03/27 00:42:58;;;;;;;12.32;2.60;;;3.20;99.90;;;;;;5017721;28;20044;-71
2023/03/27 00:45:34;;;;;;;11.52;2.05;;;3.20;99.90;;;;;;5023650;28;20103;-71
2023/03/27 00:48:08;;;;;;;8.48;1.77;;;3.20;99.90;;;;;;5022479;28;20037;-70
2023/03/27 00:50:45;;;;;;;15.93;1.92;;;3.30;99.90;;;;;;5019856;28;20095;-70
2023/03/27 00:53:15;;;;;;;11.35;2.38;;;3.30;99.90;;;;;;5025662;28;20042;-70
2023/03/27 00:55:48;;;;;;;14.77;1.92;;;;;;;;;;5016245;28;20677;-70
2023/03/27 00:58:26;;;;;;;11.88;2.10;;;3.20;99.90;;;;;;5029372;28;20025;-70
2023/03/27 01:00:58;;;;;;;13.18;1.92;;;3.20;99.90;;;;;;5026158;28;20222;-71
2023/03/27 01:03:31;;;;;;;6.50;1.40;;;3.10;99.90;;;;;;5027926;28;20129;-70
2023/03/27 01:05:58;;;;;;;12.32;1.90;;;;;;;;;;5027052;28;20034;-70
2023/03/27 01:08:32;;;;;;;15.80;2.45;;;3.10;99.90;;;;;;5025769;28;22325;-70
2023/03/27 01:11:24;;;;;;;15.18;1.98;;;3.10;99.90;;;;;;5019103;28;20079;-70
2023/03/27 01:14:10;;;;;;;15.60;2.22;;;3.20;99.90;;;;;;5026504;28;20034;-70
2023/03/27 01:16:58;;;;;;;12.52;2.42;;;3.20;99.90;;;;;;5027459;28;20053;-70
2023/03/27 01:20:07;;;;;;;8.57;2.20;;;3.20;99.90;;;;;;5022764;28;20038;-70
2023/03/27 01:22:44;;;;;;;14.20;1.92;;;3.20;99.90;;;;;;4989691;28;20050;-70
2023/03/27 01:25:34;;;;;;;11.32;2.28;;;3.10;99.90;;;;;;5021964;28;20497;-70
2023/03/27 01:28:28;;;;;;;14.60;2.05;;;3.10;99.90;;;;;;5017028;28;20034;-70
2023/03/27 01:31:31;;;;;;;14.13;1.75;;;3.10;99.90;;;;;;5011968;28;20037;-70
2023/03/27 01:34:32;;;;;;;8.23;1.50;;;3.00;99.90;;;;;;5026374;28;20029;-71
2023/03/27 01:37:20;;;;;;;15.38;2.40;;;2.90;99.90;;;;;;5021499;28;20444;-70
2023/03/27 01:40:11;;;;;;;17.98;2.20;;;2.90;99.90;;;;;;5019036;28;20485;-70
2023/03/27 01:42:51;;;;;;;8.23;1.50;;;3.00;99.90;;;;;;5020940;28;20029;-71
2023/03/27 01:45:28;;;;;;;11.63;1.90;;;2.90;99.90;;;;;;5026270;28;20379;-71
2023/03/27 01:48:14;;;;;;;9.82;1.90;;;3.00;99.90;;;;;;5019169;28;20502;-71
2023/03/27 01:51:01;;;;;;;14.00;1.70;;;3.00;99.90;;;;;;5023702;28;20037;-70
2023/03/27 01:53:40;;;;;;;10.75;1.85;;;2.90;99.90;;;;;;5017200;28;20034;-71
2023/03/27 01:56:25;;;;;;;13.15;1.83;;;2.90;99.90;;;;;;5022031;28;20036;-70
2023/03/27 01:58:58;;;;;;;11.23;1.73;;;2.90;99.90;;;;;;5019265;28;20258;-70
2023/03/27 02:01:29;;;;;;;;;;;2.90;99.90;;;;;;5022119;28;20037;-70
2023/03/27 02:04:01;;;;;;;8.60;1.30;;;;;;;;;;5028085;28;19987;-70
2023/03/27 02:06:32;;;;;;;14.18;1.73;;;2.80;99.90;;;;;;5024766;28;20108;-70
2023/03/27 02:09:10;;;;;;;14.60;1.95;;;;;;;;;;5023881;28;20029;-70
2023/03/27 02:11:53;;;;;;;8.00;1.55;;;2.70;99.90;;;;;;5022347;28;20069;-70
2023/03/27 02:14:31;;;;;;;10.80;2.05;;;2.60;99.90;;;;;;5025378;28;20058;-70
2023/03/27 02:17:11;;;;;;;6.55;1.67;;;2.50;99.90;;;;;;5023476;28;20030;-70
2023/03/27 02:20:15;;;;;;;10.23;1.58;;;2.50;99.90;;;;;;5016237;28;20029;-70
2023/03/27 02:22:49;;;;;;;12.18;2.13;;;2.50;99.90;;;;;;5025132;28;20088;-70
2023/03/27 02:25:31;;;;;;;14.38;1.90;;;2.50;99.90;;;;;;5019680;28;20034;-70
2023/03/27 02:28:18;;;;;;;17.10;2.25;;;2.50;99.90;;;;;;5021120;28;20026;-70
2023/03/27 02:30:58;;;;;;;9.40;1.90;;;2.50;99.90;;;;;;5021346;28;20041;-70
2023/03/27 02:33:42;;;;;;;14.73;2.17;;;2.40;99.90;;;;;;5016225;28;20030;-70
2023/03/27 02:36:29;;;;;;;10.95;1.98;;;2.40;99.90;;;;;;5018592;28;20036;-70
2023/03/27 02:39:27;;;;;;;15.30;1.80;;;2.30;99.90;;;;;;5014783;28;20025;-70
2023/03/27 02:42:09;;;;;;;8.63;1.73;;;2.30;99.90;;;;;;5016893;28;20541;-70
2023/03/27 02:44:51;;;;;;;14.32;1.52;;;2.40;99.90;;;;;;5023915;28;20041;-70
2023/03/27 02:47:59;;;;;;;12.35;1.83;;;2.30;99.90;;;;;;5026677;28;20444;-70
2023/03/27 02:50:38;;;;;;;15.13;2.10;;;2.30;99.90;;;;;;4998468;28;20107;-70
2023/03/27 02:53:10;;;;;;;7.82;1.80;;;2.30;99.90;;;;;;5002169;28;20030;-70
2023/03/27 02:55:50;;;;;;;9.68;1.48;;;2.20;99.90;;;;;;5006732;28;20116;-70
2023/03/27 02:58:29;;;;;;;6.43;1.45;;;2.20;99.90;;;;;;5012543;28;20143;-70
2023/03/27 03:00:58;;;;;;;11.82;1.55;;;2.10;99.90;;;;;;5017239;28;20271;-70
2023/03/27 03:03:52;;;;;;;8.68;1.58;;;2.10;99.90;;;;;;5016019;28;20040;-70
2023/03/27 03:06:28;;;;;;;10.15;1.95;;;2.10;99.90;;;;;;5015619;28;20042;-70
2023/03/27 03:09:04;;;;;;;11.70;1.50;;;;;;;;;;5029975;28;20111;-70
2023/03/27 03:11:47;;;;;;;10.68;1.38;;;2.00;99.90;;;;;;5026400;28;20041;-70
2023/03/27 03:14:23;;;;;;;14.80;1.70;;;2.00;99.90;;;;;;5029016;28;20529;-70
2023/03/27 03:16:50;;;;;;;9.65;1.52;;;1.90;99.90;;;;;;5030997;28;20486;-70
2023/03/27 03:19:22;;;;;;;10.00;1.35;;;;;;;;;;5026857;28;20454;-69
2023/03/27 03:21:55;;;;;;;12.77;1.67;;;;;;;;;;5030949;28;20044;-69
2023/03/27 03:24:26;;;;;;;8.35;1.48;;;;;;;;;;5029056;28;20045;-69
2023/03/27 03:26:54;;;;;;;9.80;1.50;;;2.00;99.90;;;;;;5021346;28;20065;-69
2023/03/27 03:29:28;;;;;;;12.43;1.85;;;2.00;99.90;;;;;;5020829;28;20037;-70
2023/03/27 03:31:58;;;;;;;10.25;2.00;;;1.90;99.90;;;;;;5017379;28;20044;-70
2023/03/27 03:34:32;;;;;;;10.60;1.60;;;1.90;99.90;;;;;;5023941;28;20061;-70
2023/03/27 03:37:01;;;;;;;14.18;1.80;;;1.90;99.90;;;;;;5019276;28;20060;-70
2023/03/27 03:39:36;;;;;;;7.88;1.50;;;1.90;99.90;;;;;;5025061;28;20137;-69
2023/03/27 03:42:02;;;;;;;7.35;1.30;;;1.90;99.90;;;;;;5026407;28;20155;-70
2023/03/27 03:44:36;;;;;;;10.63;1.75;;;1.90;99.90;;;;;;5024933;28;20026;-70
2023/03/27 03:47:04;;;;;;;6.43;1.33;;;2.00;99.90;;;;;;5022569;28;20375;-69
2023/03/27 03:49:34;;;;;;;8.88;1.38;;;2.00;99.90;;;;;;5028313;28;20049;-69
2023/03/27 03:52:04;;;;;;;7.65;1.42;;;1.90;99.90;;;;;;5022913;28;20127;-70
2023/03/27 03:54:40;;;;;;;8.27;1.10;;;2.00;99.90;;;;;;5016983;28;20057;-69
2023/03/27 03:57:09;;;;;;;9.63;1.55;;;2.00;99.90;;;;;;5019152;28;20033;-69
2023/03/27 03:59:46;;;;;;;7.65;1.77;;;2.00;99.90;;;;;;5026704;28;20383;-69
2023/03/27 04:02:27;;;;;;;8.65;1.33;;;1.90;99.90;;;;;;5023692;28;20041;-69
2023/03/27 04:05:09;;;;;;;13.95;1.98;;;1.90;99.90;;;;;;5013470;28;20029;-69
2023/03/27 04:07:35;;;;;;;13.30;2.42;;;1.90;99.90;;;;;;5025260;28;20025;-69
2023/03/27 04:10:04;;;;;;;16.33;2.33;;;1.90;99.90;;;;;;5024378;28;20038;-69
2023/03/27 04:12:47;;;;;;;17.02;2.78;;;1.90;99.90;;;;;;5025063;28;20226;-69
2023/03/27 04:15:21;;;;;;;13.43;2.08;;;1.80;99.90;;;;;;5024427;28;20120;-69
2023/03/27 04:17:52;;;;;;;13.55;2.80;;;1.70;99.90;;;;;;5025633;28;20479;-69
2023/03/27 04:20:22;;;;;;;25.38;4.90;;;1.70;99.90;;;;;;5020975;28;20490;-69
2023/03/27 04:22:53;;;;;;;19.38;3.42;;;1.60;99.90;;;;;;5022901;28;20473;-69
2023/03/27 04:25:28;;;;;;;11.88;2.17;;;1.60;99.90;;;;;;5023937;28;20037;-69
2023/03/27 04:27:55;;;;;;;22.35;4.15;;;1.60;99.90;;;;;;5019986;28;20478;-69
2023/03/27 04:30:28;;;;;;;15.77;2.55;;;1.50;99.90;;;;;;5015643;28;20029;-69
2023/03/27 04:32:58;;;;;;;8.18;1.70;;;1.60;99.90;;;;;;5022066;28;20034;-69
2023/03/27 04:35:24;;;;;;;10.20;2.00;;;1.50;99.90;;;;;;5024027;28;20087;-69
2023/03/27 04:37:50;;;;;;;10.88;1.92;;;1.50;99.90;;;;;;5019544;28;20053;-69
2023/03/27 04:40:29;;;;;;;11.90;2.53;;;1.40;99.90;;;;;;5018173;28;20048;-68
2023/03/27 04:42:58;;;;;;;14.20;2.67;;;1.40;99.90;;;;;;5022190;28;20033;-69
2023/03/27 04:45:32;;;;;;;15.57;2.75;;;1.50;99.90;;;;;;5024409;28;20068;-69
2023/03/27 04:48:02;;;;;;;13.35;2.30;;;1.40;99.90;;;;;;5022327;28;20068;-69
2023/03/27 04:50:35;;;;;;;14.00;1.90;;;1.40;99.90;;;;;;5020653;28;20060;-69
2023/03/27 04:53:02;;;;;;;20.58;2.08;;;1.30;99.90;;;;;;5017496;28;20124;-69
2023/03/27 04:55:39;;;;;;;17.17;2.45;;;1.30;99.90;;;;;;5018957;28;20025;-69
2023/03/27 04:58:11;;;;;;;14.98;2.05;;;1.30;99.90;;;;;;5019867;28;20481;-69
2023/03/27 05:00:49;;;;;;;19.27;2.20;;;1.30;99.90;;;;;;5024391;28;20031;-69
2023/03/27 05:03:27;;;;;;;16.40;2.55;;;1.30;99.90;;;;;;5018283;28;20049;-69
2023/03/27 05:06:01;;;;;;;11.00;2.40;;;1.30;99.90;;;;;;5030036;28;20029;-69
2023/03/27 05:08:32;;;;;;;19.05;3.20;;;1.30;99.90;;;;;;5026390;28;20037;-68
2023/03/27 05:11:07;;;;;;;17.75;2.15;;;;;;;;;;5024411;28;20159;-69
2023/03/27 05:13:40;;;;;;;13.48;2.38;;;1.30;99.90;;;;;;5026963;28;20026;-69
2023/03/27 05:16:16;;;;;;;17.58;2.88;;;1.30;99.90;;;;;;5029487;28;20033;-69
2023/03/27 05:18:48;;;;;;;12.65;2.20;;;1.30;99.90;;;;;;5016660;28;20073;-69
2023/03/27 05:21:22;;;;;;;9.63;1.67;;;1.30;99.90;;;;;;5018770;28;20044;-69
2023/03/27 05:23:56;;;;;;;17.67;2.85;;;1.30;99.90;;;;;;5024967;28;20029;-69
2023/03/27 05:26:29;;;;;;;15.23;2.92;;;1.30;99.90;;;;;;5024892;28;20112;-69
2023/03/27 05:29:04;;;;;;;11.98;2.20;;;1.30;99.90;;;;;;5023456;28;20666;-69
2023/03/27 05:31:35;;;;;;;17.08;2.55;;;1.40;99.90;;;;;;5020309;28;20056;-69
2023/03/27 05:34:03;;;;;;;11.90;2.40;;;1.40;99.90;;;;;;5012207;28;20036;-70
2023/03/27 05:36:32;;;;;;;15.88;2.50;;;1.40;99.90;;;;;;5017704;28;20030;-69
2023/03/27 05:39:03;;;;;;;13.23;2.35;;;1.50;99.90;;;;;;5020493;28;20021;-69
2023/03/27 05:41:30;;;;;;;18.95;2.60;;;1.40;99.90;;;;;;5023286;28;20049;-69
2023/03/27 05:44:00;;;;;;;15.93;2.30;;;1.40;99.90;;;;;;5023219;28;20033;-69
2023/03/27 05:46:26;;;;;;;15.07;1.95;;;1.40;99.90;;;;;;5016852;28;20041;-69
2023/03/27 05:48:52;;;;;;;15.90;3.05;;;1.40;99.90;;;;;;5031601;28;20057;-69
2023/03/27 05:51:18;;;;;;;18.50;2.40;;;1.50;99.90;;;;;;5024747;28;20117;-69
2023/03/27 05:53:44;;;;;;;14.02;2.40;;;1.50;99.90;;;;;;5015949;28;20040;-69
2023/03/27 05:56:12;;;;;;;7.13;2.10;;;1.50;99.90;;;;;;5014481;28;20248;-69
2023/03/27 05:58:38;;;;;;;21.08;2.42;;;1.50;99.90;;;;;;5021738;28;20539;-69
2023/03/27 06:01:04;;;;;;;11.45;2.38;;;1.50;99.90;;;;;;5020901;28;20038;-69
2023/03/27 06:03:33;;;;;;;11.00;2.63;;;1.50;99.90;;;;;;5020941;28;20087;-70
2023/03/27 06:06:05;;;;;;;10.73;2.08;;;1.60;99.90;;;;;;5027054;28;20478;-69
2023/03/27 06:08:37;;;;;;;15.15;2.30;;;1.50;99.90;;;;;;5023666;28;20643;-69
2023/03/27 06:11:13;;;;;;;8.82;2.17;;;1.50;99.90;;;;;;5019352;28;20064;-69
2023/03/27 06:13:41;;;;;;;12.80;2.33;;;1.50;99.90;;;;;;5025386;28;20548;-69
2023/03/27 06:16:07;;;;;;;17.42;2.50;;;1.60;99.90;;;;;;5026827;28;20017;-69
2023/03/27 06:18:37;;;;;;;10.35;2.88;;;1.60;99.90;;;;;;5027172;28;20390;-69
2023/03/27 06:21:07;;;;;;;15.65;2.60;;;1.60;99.90;;;;;;5016576;28;20034;-69
2023/03/27 06:23:33;;;;;;;18.55;3.08;;;1.60;99.90;;;;;;5022953;28;20033;-69
2023/03/27 06:25:59;;;;;;;23.67;2.85;;;1.60;99.90;;;;;;5026007;28;20029;-69
2023/03/27 06:28:25;;;;;;;17.95;3.42;;;1.60;99.90;;;;;;5024537;28;20021;-69
2023/03/27 06:30:56;;;;;;;21.33;3.15;;;1.60;99.90;;;;;;5020002;28;20052;-69
2023/03/27 06:33:24;;;;;;;25.52;3.78;;;1.70;99.90;;;;;;5023267;28;20033;-69
2023/03/27 06:35:50;;;;;;;16.98;4.10;;;1.80;99.90;;;;;;5022221;28;20033;-69
2023/03/27 06:38:20;;;;;;;17.58;2.92;;;1.80;99.90;;;;;;5026304;28;20024;-69
2023/03/27 06:40:47;;;;;;;20.83;3.08;;;1.90;99.90;;;;;;5024621;28;20108;-69
2023/03/27 06:43:15;;;;;;;15.45;3.00;;;1.90;99.90;;;;;;5029481;28;20623;-69
2023/03/27 06:45:49;;;;;;;16.80;3.17;;;1.90;99.90;;;;;;5030869;28;20048;-69
2023/03/27 06:48:16;;;;;;;16.95;3.58;;;1.90;99.90;;;;;;5029307;28;20025;-69
2023/03/27 06:50:46;;;;;;;15.95;4.03;;;1.90;99.90;;;;;;5025609;28;20048;-69
2023/03/27 06:54:00;;;;;;;16.85;3.60;;;2.00;99.90;;;;;;5027666;28;20045;-70
2023/03/27 06:56:30;;;;;;;13.65;3.85;;;2.00;99.90;;;;;;5019694;28;20152;-70
2023/03/27 06:58:56;;;;;;;21.20;3.67;;;2.00;99.90;;;;;;5028803;28;20036;-71
2023/03/27 07:01:23;;;;;;;20.05;3.95;;;2.10;99.90;;;;;;5030159;28;20041;-70
2023/03/27 07:03:49;;;;;;;15.25;3.70;;;2.10;99.90;;;;;;5022109;28;20593;-70
2023/03/27 07:06:15;;;;;;;18.10;4.10;;;2.10;99.90;;;;;;5026872;28;20033;-71
2023/03/27 07:08:43;;;;;;;14.50;3.80;;;2.20;99.90;;;;;;5030993;28;20544;-70
2023/03/27 07:11:09;;;;;;;18.65;4.30;;;2.20;99.90;;;;;;5028778;28;20040;-70
2023/03/27 07:13:34;;;;;;;20.08;4.20;;;2.30;99.90;;;;;;5021869;28;20038;-71
2023/03/27 07:16:04;;;;;;;21.50;4.25;;;2.40;99.90;;;;;;5027071;28;20181;-70
2023/03/27 07:18:29;;;;;;;24.98;5.05;;;2.50;99.90;;;;;;5026469;28;20025;-71
2023/03/27 07:20:55;;;;;;;24.10;4.40;;;2.60;99.90;;;;;;5024234;28;20035;-71
2023/03/27 07:23:21;;;;;;;17.75;4.55;;;2.70;99.90;;;;;;5029007;28;20021;-71
2023/03/27 07:25:48;;;;;;;16.45;4.18;;;2.80;99.90;;;;;;5029424;28;20030;-71
2023/03/27 07:28:17;;;;;;;12.98;4.13;;;2.90;99.90;;;;;;5024695;28;20371;-70
2023/03/27 07:30:44;;;;;;;13.45;4.07;;;3.10;99.90;;;;;;5023728;28;20837;-71
2023/03/27 07:33:11;;;;;;;29.65;5.03;;;3.10;99.90;;;;;;5030420;28;20027;-70
2023/03/27 07:35:44;;;;;;;15.40;4.40;;;3.10;99.90;;;;;;5027714;28;20431;-71
2023/03/27 07:38:13;;;;;;;13.25;4.13;;;3.20;99.90;;;;;;5023953;28;20326;-71
2023/03/27 07:40:42;;;;;;;18.67;4.63;;;3.20;99.90;;;;;;5021141;28;20260;-70
2023/03/27 07:43:08;;;;;;;18.48;4.38;;;3.20;99.90;;;;;;5025358;28;20029;-70
2023/03/27 07:45:42;;;;;;;19.83;5.13;;;3.30;99.90;;;;;;5031752;28;20026;-71
2023/03/27 07:48:17;;;;;;;23.90;5.10;;;3.30;99.90;;;;;;5027941;28;20037;-70
2023/03/27 07:50:44;;;;;;;17.50;5.25;;;3.40;99.90;;;;;;5021125;28;20040;-71
2023/03/27 07:53:10;;;;;;;18.33;4.95;;;3.40;99.90;;;;;;5019909;28;20030;-72
2023/03/27 07:55:37;;;;;;;20.00;4.63;;;3.50;99.90;;;;;;5027601;28;20550;-71
2023/03/27 07:58:09;;;;;;;20.52;5.03;;;3.60;99.90;;;;;;5022593;28;20469;-71
2023/03/27 08:00:42;;;;;;;22.27;5.00;;;3.70;99.90;;;;;;5024219;28;20045;-72
2023/03/27 08:03:15;;;;;;;13.88;4.72;;;3.80;99.90;;;;;;5021011;28;20116;-71
2023/03/27 08:05:53;;;;;;;16.25;4.47;;;;;;;;;;5023145;28;20674;-70
2023/03/27 08:08:21;;;;;;;14.27;3.88;;;;;;;;;;5029790;28;20040;-71
2023/03/27 08:10:55;;;;;;;12.52;4.00;;;4.30;99.90;;;;;;5026013;28;20061;-70
2023/03/27 08:13:29;;;;;;;13.45;4.10;;;4.30;99.90;;;;;;5019487;28;20063;-72
2023/03/27 08:16:07;;;;;;;14.27;4.10;;;4.30;99.90;;;;;;5022246;28;20057;-72
2023/03/27 08:18:35;;;;;;;11.23;3.65;;;4.50;99.90;;;;;;5027246;28;20461;-71
2023/03/27 08:21:09;;;;;;;12.38;3.33;;;4.70;99.90;;;;;;5023145;28;20043;-70
2023/03/27 08:23:39;;;;;;;11.77;2.80;;;5.00;99.90;;;;;;5027024;28;20044;-71
2023/03/27 08:26:08;;;;;;;14.43;3.92;;;5.00;99.90;;;;;;5024055;28;21735;-71
2023/03/27 08:28:39;;;;;;;16.65;3.00;;;5.10;99.90;;;;;;5015249;28;20036;-71
2023/03/27 08:31:14;;;;;;;8.55;2.53;;;5.30;99.90;;;;;;5015159;28;20030;-71
2023/03/27 08:33:46;;;;;;;8.93;2.17;;;5.50;99.90;;;;;;5026272;28;20139;-71
2023/03/27 08:36:21;;;;;;;15.87;2.10;;;5.50;99.90;;;;;;5017993;28;20034;-73
2023/03/27 08:38:50;;;;;;;8.20;2.28;;;;;;;;;;5028108;28;20764;-71
2023/03/27 08:41:29;;;;;;;11.77;2.55;;;5.20;99.90;;;;;;5025393;28;20025;-71
2023/03/27 08:43:59;;;;;;;12.50;2.90;;;5.40;99.90;;;;;;5019115;28;20030;-71
2023/03/27 08:46:39;;;;;;;12.90;2.70;;;5.30;99.90;;;;;;5016769;28;20030;-71
2023/03/27 08:49:13;;;;;;;8.38;2.40;;;;;;;;;;5028730;28;20052;-71
2023/03/27 08:51:53;;;;;;;17.10;2.50;;;;;;;;;;5016882;28;20034;-70
2023/03/27 08:54:29;;;;;;;9.85;2.67;;;5.40;99.90;;;;;;5029014;28;20029;-70
2023/03/27 08:57:11;;;;;;;10.32;2.50;;;5.50;99.90;;;;;;5024975;28;20018;-70
2023/03/27 08:59:38;;;;;;;9.85;2.30;;;5.40;99.90;;;;;;5011218;28;20029;-71
2023/03/27 09:02:09;;;;;;;6.18;2.03;;;;;;;;;;5021933;28;20379;-71
2023/03/27 09:04:53;;;;;;;8.98;2.42;;;5.60;99.90;;;;;;5015278;28;20025;-71
2023/03/27 09:07:27;;;;;;;17.45;2.65;;;;;;;;;;5015013;28;20037;-71
2023/03/27 09:09:58;;;;;;;9.90;2.20;;;5.50;99.90;;;;;;5019589;28;20033;-71
2023/03/27 09:12:33;;;;;;;12.02;2.20;;;5.30;99.90;;;;;;5021732;28;20479;-72
2023/03/27 09:15:11;;;;;;;10.63;2.47;;;5.30;99.90;;;;;;5021087;28;20053;-72
2023/03/27 09:17:51;;;;;;;10.05;2.20;;;5.50;99.90;;;;;;5021918;28;20410;-71
2023/03/27 09:20:41;;;;;;;7.82;1.92;;;5.80;99.90;;;;;;5018299;28;20104;-73
2023/03/27 09:23:26;;;;;;;10.80;2.25;;;5.80;99.90;;;;;;5018977;28;20033;-71
2023/03/27 09:26:00;;;;;;;8.43;2.10;;;;;;;;;;5015650;28;20169;-72
2023/03/27 09:28:34;;;;;;;8.65;2.10;;;;;;;;;;5017106;28;20510;-72
2023/03/27 09:31:20;;;;;;;7.88;2.03;;;;;;;;;;5026098;28;20465;-71
2023/03/27 09:33:52;;;;;;;7.28;1.70;;;;;;;;;;5018572;28;20337;-71
2023/03/27 09:36:18;;;;;;;13.10;2.20;;;;;;;;;;5005979;28;20601;-72
2023/03/27 09:38:49;;;;;;;11.05;2.03;;;;;;;;;;5016763;28;20025;-71
2023/03/27 09:41:24;;;;;;;7.78;1.90;;;;;;;;;;5024093;28;20045;-71
2023/03/27 09:43:57;;;;;;;8.93;2.25;;;;;;;;;;5023345;28;20493;-71
2023/03/27 09:46:28;;;;;;;8.10;1.83;;;5.70;99.90;;;;;;5021948;28;20029;-71
2023/03/27 09:49:03;;;;;;;7.35;1.80;;;5.70;99.90;;;;;;5024038;28;20579;-71
2023/03/27 09:51:41;;;;;;;13.15;2.35;;;5.90;99.90;;;;;;5016432;28;20106;-71
2023/03/27 09:54:08;;;;;;;8.15;2.38;;;6.30;99.90;;;;;;5024043;28;20439;-71
2023/03/27 09:56:43;;;;;;;9.05;1.80;;;6.50;99.90;;;;;;5025577;28;20112;-71
2023/03/27 09:59:19;;;;;;;6.18;1.70;;;6.50;99.90;;;;;;5023776;28;20029;-71
2023/03/27 10:01:48;;;;;;;11.52;2.05;;;6.50;99.90;;;;;;5018676;28;20026;-71
2023/03/27 10:04:16;;;;;;;11.07;2.13;;;;;;;;;;5016703;28;20042;-72
2023/03/27 10:06:56;;;;;;;9.93;2.47;;;6.50;99.90;;;;;;5019749;28;20049;-72
2023/03/27 10:09:37;;;;;;;12.77;1.85;;;;;;;;;;5017762;28;20112;-71
2023/03/27 10:12:18;;;;;;;10.30;2.40;;;6.60;99.90;;;;;;5018681;28;20049;-71
2023/03/27 10:14:52;;;;;;;7.20;1.85;;;6.70;99.90;;;;;;5011527;28;20037;-71
2023/03/27 10:17:30;;;;;;;7.38;2.20;;;6.70;99.90;;;;;;5017249;28;20112;-71
2023/03/27 10:20:15;;;;;;;7.18;2.17;;;6.80;99.90;;;;;;5010450;28;20025;-71
2023/03/27 10:22:56;;;;;;;9.00;1.70;;;;;;;;;;5012568;28;20040;-71
2023/03/27 10:25:37;;;;;;;9.55;2.08;;;;;;;;;;5016893;28;20026;-71
2023/03/27 10:28:16;;;;;;;9.77;2.25;;;;;;;;;;5025661;28;20055;-71
2023/03/27 10:30:58;;;;;;;6.97;1.73;;;;;;;;;;5014547;28;20037;-71
2023/03/27 10:33:29;;;;;;;9.68;2.40;;;;;;;;;;5018884;28;20026;-71
2023/03/27 10:35:57;;;;;;;8.57;2.33;;;;;;;;;;5022403;28;20029;-71
2023/03/27 10:38:28;;;;;;;11.35;1.95;;;;;;;;;;5028558;28;20025;-71
2023/03/27 10:40:57;;;;;;;8.85;1.95;;;;;;;;;;5015116;28;20110;-71
2023/03/27 10:43:28;;;;;;;7.90;1.90;;;;;;;;;;5015580;28;20042;-71
2023/03/27 10:46:00;;;;;;;6.43;1.77;;;;;;;;;;5015496;28;20410;-70
2023/03/27 10:48:35;;;;;;;6.07;1.50;;;7.80;99.90;;;;;;5025174;28;20029;-71
2023/03/27 10:51:05;;;;;;;5.28;1.58;;;7.50;99.90;;;;;;5013291;28;20073;-71
2023/03/27 10:53:57;;;;;;;5.47;1.55;;;7.00;99.90;;;;;;5018729;28;20026;-70
2023/03/27 10:56:57;;;;;;;5.65;1.30;;;6.50;99.90;;;;;;5016281;28;20030;-71
2023/03/27 10:59:30;;;;;;;6.20;1.83;;;;;;;;;;5021597;28;20026;-71
2023/03/27 11:02:00;;;;;;;6.45;1.77;;;;;;;;;;5016674;28;20040;-71
2023/03/27 11:04:53;;;;;;;6.78;1.60;;;6.40;99.90;;;;;;5017192;28;20033;-71
2023/03/27 11:07:44;;;;;;;4.63;1.45;;;6.60;99.90;;;;;;5026079;28;20021;-71
2023/03/27 11:10:21;;;;;;;5.45;1.75;;;6.80;99.90;;;;;;5017515;28;20046;-71
2023/03/27 11:13:02;;;;;;;4.55;1.63;;;7.00;99.90;;;;;;5020867;28;20046;-71
2023/03/27 11:15:35;;;;;;;5.28;1.67;;;;;;;;;;5016570;28;20040;-71
2023/03/27 11:18:13;;;;;;;8.45;2.28;;;;;;;;;;5022494;28;20053;-71
2023/03/27 11:20:55;;;;;;;6.07;1.73;;;;;;;;;;5022616;28;20040;-71
2023/03/27 11:23:33;;;;;;;5.30;1.65;;;;;;;;;;5021917;28;20508;-71
2023/03/27 11:26:04;;;;;;;5.28;1.65;;;;;;;;;;5014047;28;20089;-71
2023/03/27 11:28:32;;;;;;;6.20;2.08;;;;;;;;;;5027170;28;20036;-71
2023/03/27 11:31:21;;;;;;;6.85;1.80;;;;;;;;;;5016291;28;20099;-71
2023/03/27 11:34:00;;;;;;;6.65;2.25;;;7.80;99.90;;;;;;5016835;28;20026;-72
2023/03/27 11:36:36;;;;;;;7.15;1.70;;;7.90;99.90;;;;;;5017513;28;20120;-71
2023/03/27 11:39:21;;;;;;;5.43;1.55;;;8.00;99.90;;;;;;5022348;28;20833;-71
2023/03/27 11:41:59;;;;;;;7.75;1.60;;;8.00;99.90;;;;;;5024878;28;20033;-71
2023/03/27 11:44:29;;;;;;;5.53;1.67;;;7.90;99.90;;;;;;5017414;28;20033;-72
2023/03/27 11:47:09;;;;;;;6.32;3.10;;;7.60;99.90;;;;;;5012033;28;20418;-71
2023/03/27 11:50:03;;;;;;;5.47;1.35;;;7.80;99.90;;;;;;5027890;28;20435;-71
2023/03/27 11:52:46;;;;;;;;;;;7.90;99.90;;;;;;5025670;28;20409;-71
2023/03/27 11:55:22;;;;;;;4.97;1.38;;;8.10;99.90;;;;;;5024398;28;19913;-71
2023/03/27 11:58:06;;;;;;;5.40;1.58;;;8.10;99.90;;;;;;5020277;28;20165;-71
2023/03/27 12:00:51;;;;;;;4.55;1.25;;;8.20;99.90;;;;;;5016639;28;20029;-71
2023/03/27 12:03:41;;;;;;;3.75;1.08;;;8.20;99.90;;;;;;5022605;28;20029;-71
2023/03/27 12:06:32;;;;;;;2.75;1.08;;;8.10;99.90;;;;;;5015069;28;20119;-71
2023/03/27 12:09:35;;;;;;;6.72;1.20;;;8.10;99.90;;;;;;5021785;28;20329;-71
2023/03/27 12:12:14;;;;;;;5.00;1.10;;;7.60;99.90;;;;;;5001581;28;20533;-71
2023/03/27 12:14:44;;;;;;;4.28;0.98;;;;;;;;;;5010433;28;20030;-70
2023/03/27 12:17:48;;;;;;;4.13;1.05;;;7.30;99.90;;;;;;5016517;28;20502;-71
2023/03/27 12:20:34;;;;;;;;;;;7.60;99.90;;;;;;5017014;28;20041;-71
2023/03/27 12:23:31;;;;;;;4.28;0.98;;;7.50;99.90;;;;;;5025617;28;19917;-71
2023/03/27 12:26:21;;;;;;;3.45;1.00;;;7.70;99.90;;;;;;5024708;28;20421;-71
2023/03/27 12:29:01;;;;;;;3.92;1.02;;;7.80;99.90;;;;;;5015986;28;20386;-71
2023/03/27 12:31:54;;;;;;;2.28;0.80;;;7.80;99.90;;;;;;5020175;28;20029;-71
2023/03/27 12:34:48;;;;;;;5.95;1.58;;;8.10;99.90;;;;;;5029281;28;20029;-71
2023/03/27 12:37:15;;;;;;;3.30;1.17;;;8.30;99.90;;;;;;5025205;28;20522;-71
2023/03/27 12:39:53;;;;;;;3.70;1.00;;;8.70;99.90;;;;;;5014298;28;20403;-71
2023/03/27 12:42:48;;;;;;;3.47;1.25;;;9.10;99.90;;;;;;5021832;28;20037;-71
2023/03/27 12:45:18;;;;;;;2.42;0.90;;;9.30;99.90;;;;;;5017520;28;20021;-71
2023/03/27 12:48:03;;;;;;;5.25;0.90;;;9.20;99.90;;;;;;5026884;28;20033;-71
2023/03/27 12:50:33;;;;;;;3.38;0.90;;;8.70;99.90;;;;;;5016072;28;20069;-71
2023/03/27 12:53:04;;;;;;;4.40;1.10;;;8.60;99.90;;;;;;5018767;28;20100;-71
2023/03/27 12:55:35;;;;;;;5.35;1.35;;;8.30;99.90;;;;;;5020805;28;20022;-71
2023/03/27 12:58:03;;;;;;;6.80;1.30;;;8.20;99.90;;;;;;5021512;28;20490;-71
2023/03/27 13:00:33;;;;;;;4.05;1.13;;;8.10;99.90;;;;;;5027308;28;20517;-70
2023/03/27 13:03:36;;;;;;;5.82;1.60;;;8.00;99.90;;;;;;5021240;28;20029;-71
2023/03/27 13:06:23;;;;;;;6.93;1.55;;;8.10;99.90;;;;;;5019784;28;20113;-72
2023/03/27 13:08:54;;;;;;;6.68;1.67;;;;;;;;;;5017931;28;20545;-72
2023/03/27 13:11:36;;;;;;;5.78;1.17;;;7.60;99.90;;;;;;5017241;28;20042;-71
2023/03/27 13:14:19;;;;;;;7.05;1.85;;;7.40;99.90;;;;;;5019996;28;20033;-71
2023/03/27 13:17:21;;;;;;;4.53;1.35;;;7.30;99.90;;;;;;5028292;28;20029;-71
2023/03/27 13:20:20;;;;;;;5.15;1.10;;;7.30;99.90;;;;;;5025841;28;20030;-71
2023/03/27 13:23:21;;;;;;;4.20;1.17;;;7.70;99.90;;;;;;5012330;28;20490;-70
2023/03/27 13:26:00;;;;;;;3.83;1.50;;;8.10;99.90;;;;;;5025710;28;20033;-71
2023/03/27 13:28:36;;;;;;;2.72;0.77;;;8.30;99.90;;;;;;5024452;28;20037;-70
2023/03/27 13:31:13;;;;;;;2.67;0.82;;;8.60;99.90;;;;;;5018804;28;20156;-71
2023/03/27 13:34:10;;;;;;;3.67;0.90;;;8.70;99.90;;;;;;5027832;28;20034;-71
2023/03/27 13:36:50;;;;;;;4.22;1.27;;;8.50;99.90;;;;;;5020149;28;20174;-71
2023/03/27 13:39:38;;;;;;;5.07;1.00;;;8.20;99.90;;;;;;5024431;28;20026;-71
2023/03/27 13:42:17;;;;;;;5.60;0.90;;;8.10;99.90;;;;;;5016539;28;20037;-71
2023/03/27 13:45:11;;;;;;;4.05;0.90;;;7.50;99.90;;;;;;5026904;28;20025;-70
2023/03/27 13:47:48;;;;;;;3.92;0.88;;;;;;;;;;5028268;28;20033;-70
2023/03/27 13:50:26;;;;;;;5.53;1.00;;;;;;;;;;5024441;28;20111;-71
2023/03/27 13:53:13;;;;;;;5.13;1.00;;;;;;;;;;5026423;28;20482;-71
2023/03/27 13:56:02;;;;;;;4.35;1.10;;;;;;;;;;5023447;28;20490;-71